createdAt,value
2022-10-23T00:01:46.079Z,83.40
2022-10-23T00:04:25.234Z,83.97
2022-10-23T00:06:52.359Z,83.81
2022-10-23T00:09:22.638Z,83.92
2022-10-23T00:11:50.939Z,84.40
2022-10-23T00:14:20.399Z,84.50
2022-10-23T00:16:47.086Z,84.35
2022-10-23T00:19:13.863Z,84.65
2022-10-23T00:21:40.993Z,84.70
2022-10-23T00:26:38.423Z,85.01
2022-10-23T00:29:05.899Z,85.03
2022-10-23T00:31:33.112Z,85.20
2022-10-23T00:33:59.833Z,85.62
2022-10-23T00:36:26.862Z,85.64
2022-10-23T00:38:53.687Z,85.34
2022-10-23T00:41:24.190Z,85.80
2022-10-23T00:44:30.501Z,85.75
2022-10-23T00:46:58.793Z,86.03
2022-10-23T00:49:25.763Z,86.26
2022-10-23T00:51:57.153Z,86.30
2022-10-23T00:54:27.526Z,86.36
2022-10-23T00:56:58.664Z,86.49
2022-10-23T00:59:25.391Z,86.67
2022-10-23T01:01:52.515Z,86.57
2022-10-23T01:04:20.009Z,86.94
2022-10-23T01:06:52.375Z,87.01
2022-10-23T01:09:29.780Z,86.95
2022-10-23T01:12:19.744Z,87.01
2022-10-23T01:15:07.476Z,87.32
2022-10-23T01:17:44.657Z,87.04
2022-10-23T01:20:35.319Z,87.49
2022-10-23T01:23:20.816Z,87.24
2022-10-23T01:26:07.987Z,87.64
2022-10-23T01:28:44.343Z,87.42
2022-10-23T01:31:16.801Z,87.80
2022-10-23T01:33:49.265Z,87.80
2022-10-23T01:36:18.900Z,87.84
2022-10-23T01:39:00.755Z,87.83
2022-10-23T01:41:34.290Z,88.05
2022-10-23T01:44:16.236Z,88.29
2022-10-23T01:46:45.474Z,88.12
2022-10-23T01:49:14.723Z,88.19
2022-10-23T01:51:47.033Z,88.50
2022-10-23T01:54:16.838Z,88.39
2022-10-23T01:56:47.096Z,88.65
2022-10-23T01:59:19.942Z,88.53
2022-10-23T02:01:50.737Z,88.70
2022-10-23T02:04:24.362Z,88.96
2022-10-23T02:06:51.409Z,88.82
2022-10-23T02:09:18.235Z,89.04
2022-10-23T02:12:47.528Z,88.82
2022-10-23T02:16:09.320Z,89.32
2022-10-23T02:23:34.307Z,89.02
2022-10-23T02:26:55.692Z,89.19
2022-10-23T02:29:30.347Z,89.23
2022-10-23T02:31:57.251Z,89.39
2022-10-23T02:34:23.961Z,89.30
2022-10-23T02:36:51.624Z,89.62
2022-10-23T02:39:18.785Z,89.32
2022-10-23T02:41:50.364Z,89.28
2022-10-23T02:44:26.625Z,89.39
2022-10-23T02:47:13.333Z,89.59
2022-10-23T02:49:53.537Z,89.38
2022-10-23T02:52:38.569Z,89.76
2022-10-23T02:55:23.665Z,89.50
2022-10-23T02:58:19.250Z,89.76
2022-10-23T03:00:52.678Z,89.85
2022-10-23T03:03:34.203Z,89.54
2022-10-23T03:06:01.760Z,89.71
2022-10-23T03:08:28.635Z,90.06
2022-10-23T03:10:55.445Z,90.04
2022-10-23T03:13:23.618Z,89.85
2022-10-23T03:15:50.514Z,90.26
2022-10-23T03:18:17.220Z,90.27
2022-10-23T03:20:43.850Z,89.94
2022-10-23T03:23:13.486Z,90.45
2022-10-23T03:25:40.196Z,90.37
2022-10-23T03:28:06.889Z,90.28
2022-10-23T03:30:33.796Z,90.62
2022-10-23T03:33:00.424Z,90.33
2022-10-23T03:35:27.124Z,90.70
2022-10-23T03:37:54.045Z,90.61
2022-10-23T03:40:20.983Z,90.31
2022-10-23T03:42:47.769Z,90.71
2022-10-23T03:45:14.860Z,90.72
2022-10-23T03:47:41.897Z,90.86
2022-10-23T03:50:10.191Z,90.97
2022-10-23T03:52:37.563Z,91.05
2022-10-23T03:55:05.475Z,90.80
2022-10-23T03:57:33.037Z,91.01
2022-10-23T03:59:59.875Z,91.06
2022-10-23T04:02:26.685Z,91.07
2022-10-23T04:04:54.147Z,91.17
2022-10-23T04:07:21.143Z,90.97
2022-10-23T04:09:47.808Z,91.05
2022-10-23T04:12:14.571Z,91.02
2022-10-23T04:14:41.937Z,91.13
2022-10-23T04:17:08.631Z,91.23
2022-10-23T04:19:35.442Z,91.31
2022-10-23T04:22:02.322Z,91.13
2022-10-23T04:24:28.967Z,91.45
2022-10-23T04:26:55.682Z,91.28
2022-10-23T04:29:24.705Z,91.41
2022-10-23T04:31:51.902Z,91.34
2022-10-23T04:34:18.957Z,91.38
2022-10-23T04:36:45.693Z,91.39
2022-10-23T04:39:12.983Z,91.43
2022-10-23T04:41:39.694Z,91.60
2022-10-23T04:44:07.083Z,91.58
2022-10-23T04:46:33.784Z,91.37
2022-10-23T04:49:00.767Z,91.70
2022-10-23T04:51:27.587Z,91.77
2022-10-23T04:53:54.550Z,91.79
2022-10-23T04:56:21.226Z,91.84
2022-10-23T04:58:48.063Z,91.91
2022-10-23T05:01:15.144Z,91.55
2022-10-23T05:03:41.842Z,91.57
2022-10-23T05:06:08.650Z,92.02
2022-10-23T05:08:36.094Z,91.59
2022-10-23T05:11:02.951Z,91.71
2022-10-23T05:13:29.716Z,91.97
2022-10-23T05:16:00.240Z,91.74
2022-10-23T05:18:28.755Z,91.63
2022-10-23T05:21:29.509Z,91.87
2022-10-23T05:23:56.290Z,91.74
2022-10-23T05:26:23.090Z,91.96
2022-10-23T05:28:50.030Z,91.92
2022-10-23T05:31:19.102Z,92.14
2022-10-23T05:33:45.942Z,91.79
2022-10-23T05:36:14.349Z,91.91
2022-10-23T05:38:41.470Z,92.12
2022-10-23T05:41:08.252Z,91.83
2022-10-23T05:43:35.068Z,92.01
2022-10-23T05:46:05.676Z,92.02
2022-10-23T05:48:35.423Z,92.28
2022-10-23T05:51:06.879Z,92.30
2022-10-23T05:53:36.142Z,91.95
2022-10-23T05:56:09.546Z,92.03
2022-10-23T05:58:36.647Z,92.26
2022-10-23T06:01:08.031Z,92.24
2022-10-23T06:03:35.696Z,92.23
2022-10-23T06:06:02.481Z,92.40
2022-10-23T06:08:30.073Z,92.23
2022-10-23T06:10:56.903Z,92.44
2022-10-23T06:13:23.755Z,92.13
2022-10-23T06:15:50.529Z,92.41
2022-10-23T06:18:17.360Z,92.36
2022-10-23T06:20:44.377Z,92.57
2022-10-23T06:23:11.024Z,92.41
2022-10-23T06:25:38.179Z,92.36
2022-10-23T06:28:04.982Z,92.14
2022-10-23T06:30:31.725Z,92.10
2022-10-23T06:33:01.112Z,92.38
2022-10-23T06:35:30.151Z,92.27
2022-10-23T06:37:56.811Z,92.19
2022-10-23T06:40:23.655Z,92.45
2022-10-23T06:42:50.367Z,92.03
2022-10-23T06:45:17.197Z,92.21
2022-10-23T06:47:44.207Z,92.14
2022-10-23T06:50:13.204Z,92.11
2022-10-23T06:52:46.952Z,92.25
2022-10-23T06:55:15.098Z,92.11
2022-10-23T06:57:43.046Z,92.38
2022-10-23T07:00:11.267Z,92.22
2022-10-23T07:02:38.134Z,92.28
2022-10-23T07:05:07.682Z,92.46
2022-10-23T07:07:36.614Z,92.31
2022-10-23T07:10:03.957Z,92.40
2022-10-23T07:12:30.929Z,92.13
2022-10-23T07:14:57.797Z,92.16
2022-10-23T07:17:24.651Z,92.26
2022-10-23T07:19:52.912Z,92.11
2022-10-23T07:22:22.589Z,92.44
2022-10-23T07:24:49.564Z,91.96
2022-10-23T07:27:16.204Z,92.03
2022-10-23T07:29:42.926Z,92.11
2022-10-23T07:32:10.034Z,92.31
2022-10-23T07:34:37.228Z,91.98
2022-10-23T07:37:03.934Z,92.25
2022-10-23T07:39:30.846Z,92.02
2022-10-23T07:41:57.445Z,91.92
2022-10-23T07:44:26.981Z,92.08
2022-10-23T07:46:54.651Z,92.22
2022-10-23T07:49:21.312Z,91.96
2022-10-23T07:51:51.230Z,92.37
2022-10-23T07:54:19.131Z,92.18
2022-10-23T07:56:45.802Z,92.25
2022-10-23T07:59:13.592Z,91.83
2022-10-23T08:01:40.936Z,91.91
2022-10-23T08:04:08.033Z,92.13
2022-10-23T08:06:35.468Z,92.26
2022-10-23T08:09:06.284Z,92.16
2022-10-23T08:11:35.875Z,91.98
2022-10-23T08:18:54.777Z,92.04
2022-10-23T08:21:21.548Z,92.21
2022-10-23T08:23:48.246Z,91.84
2022-10-23T08:26:15.827Z,92.11
2022-10-23T08:28:42.573Z,91.87
2022-10-23T08:31:15.147Z,91.95
2022-10-23T08:33:43.349Z,92.02
2022-10-23T08:36:23.245Z,91.75
2022-10-23T08:38:53.792Z,91.77
2022-10-23T08:41:38.671Z,92.11
2022-10-23T08:44:36.064Z,91.72
2022-10-23T08:47:10.661Z,91.86
2022-10-23T08:49:50.901Z,91.91
2022-10-23T08:52:22.293Z,91.60
2022-10-23T08:55:02.555Z,91.74
2022-10-23T08:57:40.052Z,91.70
2022-10-23T09:00:14.962Z,91.36
2022-10-23T09:02:51.521Z,91.42
2022-10-23T09:05:21.822Z,91.74
2022-10-23T09:08:08.943Z,91.52
2022-10-23T09:10:38.388Z,91.36
2022-10-23T09:13:34.599Z,91.67
2022-10-23T09:16:38.123Z,91.73
2022-10-23T09:19:20.041Z,91.65
2022-10-23T09:21:50.354Z,91.47
2022-10-23T09:24:19.814Z,91.49
2022-10-23T09:26:49.975Z,91.55
2022-10-23T09:29:33.019Z,91.70
2022-10-23T09:32:02.149Z,91.66
2022-10-23T09:34:30.734Z,91.80
2022-10-23T09:37:00.603Z,91.61
2022-10-23T09:39:30.646Z,91.59
2022-10-23T09:41:58.613Z,91.64
2022-10-23T09:44:28.145Z,91.66
2022-10-23T09:47:19.077Z,91.75
2022-10-23T09:49:53.662Z,91.73
2022-10-23T09:52:29.259Z,91.73
2022-10-23T09:55:02.623Z,91.73
2022-10-23T09:57:35.866Z,91.76
2022-10-23T10:00:15.995Z,91.87
2022-10-23T10:02:54.635Z,91.75
2022-10-23T10:05:25.616Z,91.69
2022-10-23T10:08:19.993Z,91.47
2022-10-23T10:11:00.257Z,91.63
2022-10-23T10:13:52.271Z,91.31
2022-10-23T10:16:48.115Z,91.66
2022-10-23T10:19:33.310Z,91.15
2022-10-23T10:22:21.114Z,91.16
2022-10-23T10:25:09.761Z,91.05
2022-10-23T10:28:00.499Z,91.07
2022-10-23T10:30:49.439Z,90.72
2022-10-23T10:33:25.056Z,90.72
2022-10-23T10:36:20.105Z,90.73
2022-10-23T10:38:51.709Z,90.62
2022-10-23T10:41:27.235Z,90.52
2022-10-23T10:44:34.038Z,90.36
2022-10-23T10:47:24.445Z,90.25
2022-10-23T10:49:54.083Z,90.25
2022-10-23T10:52:49.349Z,90.02
2022-10-23T10:55:32.437Z,89.87
2022-10-23T10:58:16.595Z,89.66
2022-10-23T11:00:46.193Z,89.61
2022-10-23T11:03:40.265Z,89.28
2022-10-23T11:06:15.415Z,89.45
2022-10-23T11:08:56.278Z,89.20
2022-10-23T11:11:28.903Z,89.16
2022-10-23T11:13:56.133Z,88.88
2022-10-23T11:16:33.825Z,88.69
2022-10-23T11:19:14.105Z,88.35
2022-10-23T11:22:01.347Z,87.79
2022-10-23T11:24:45.349Z,86.96
2022-10-23T11:27:36.991Z,86.42
2022-10-23T11:30:17.242Z,85.75
2022-10-23T11:33:08.717Z,85.31
2022-10-23T11:36:07.072Z,84.76
2022-10-23T11:38:37.624Z,84.51
2022-10-23T11:41:16.441Z,84.68
2022-10-23T11:43:57.220Z,84.42
2022-10-23T11:46:25.636Z,84.46
2022-10-23T11:48:53.983Z,84.35
2022-10-23T11:51:34.472Z,84.40
2022-10-23T11:54:10.103Z,84.40
2022-10-23T11:56:39.285Z,84.19
2022-10-23T11:59:50.134Z,84.26
2022-10-23T12:02:39.028Z,84.30
2022-10-23T12:05:27.280Z,84.49
2022-10-23T12:07:58.334Z,84.13
2022-10-23T12:10:34.823Z,84.37
2022-10-23T12:13:06.642Z,84.30
2022-10-23T12:15:36.766Z,84.38
2022-10-23T12:18:17.533Z,84.10
2022-10-23T12:20:47.090Z,84.26
2022-10-23T12:23:26.018Z,84.09
2022-10-23T12:26:26.378Z,83.97
2022-10-23T12:29:05.266Z,83.81
2022-10-23T12:32:01.161Z,83.71
2022-10-23T12:34:35.198Z,83.19
2022-10-23T12:37:26.617Z,83.18
2022-10-23T12:39:55.891Z,82.81
2022-10-23T12:42:25.048Z,82.96
2022-10-23T12:45:02.646Z,82.64
2022-10-23T12:47:30.688Z,82.23
2022-10-23T12:49:57.597Z,82.37
2022-10-23T12:52:27.228Z,81.82
2022-10-23T12:54:53.963Z,81.65
2022-10-23T12:57:27.088Z,81.07
2022-10-23T13:00:00.685Z,80.65
2022-10-23T13:02:30.994Z,80.14
2022-10-23T13:05:02.218Z,79.30
2022-10-23T13:07:36.125Z,78.56
2022-10-23T13:10:04.294Z,78.08
2022-10-23T13:12:36.411Z,77.09
2022-10-23T13:15:17.257Z,75.71
2022-10-23T13:18:07.124Z,74.57
2022-10-23T13:20:39.639Z,73.10
2022-10-23T13:23:21.764Z,71.96
2022-10-23T13:26:03.037Z,70.79
2022-10-23T13:28:33.728Z,69.66
2022-10-23T13:31:11.648Z,68.60
2022-10-23T13:33:39.601Z,67.14
2022-10-23T13:36:09.256Z,65.32
2022-10-23T13:38:38.302Z,63.91
2022-10-23T13:41:06.877Z,61.75
2022-10-23T13:43:34.269Z,59.60
2022-10-23T13:46:01.589Z,57.49
2022-10-23T13:48:28.993Z,55.55
2022-10-23T13:51:06.536Z,53.87
2022-10-23T13:53:33.254Z,52.58
2022-10-23T13:56:00.066Z,52.05
2022-10-23T13:58:26.888Z,50.80
2022-10-23T14:00:54.235Z,50.38
2022-10-23T14:03:24.399Z,49.92
2022-10-23T14:05:51.981Z,49.70
2022-10-23T14:08:19.285Z,49.74
2022-10-23T14:10:46.587Z,49.82
2022-10-23T14:13:13.388Z,50.08
2022-10-23T14:15:40.239Z,50.33
2022-10-23T14:18:08.342Z,50.49
2022-10-23T14:20:35.465Z,50.51
2022-10-23T14:23:02.122Z,50.59
2022-10-23T14:25:28.935Z,50.94
2022-10-23T14:30:27.362Z,51.24
2022-10-23T14:32:54.104Z,51.27
2022-10-23T14:35:21.118Z,51.75
2022-10-23T14:37:47.797Z,51.65
2022-10-23T14:40:14.668Z,51.85
2022-10-23T14:42:41.480Z,51.79
2022-10-23T14:45:08.805Z,52.49
2022-10-23T14:47:35.813Z,52.86
2022-10-23T14:50:02.879Z,53.26
2022-10-23T14:52:29.840Z,53.99
2022-10-23T14:54:56.629Z,54.70
2022-10-23T14:57:23.528Z,55.11
2022-10-23T14:59:50.524Z,55.44
2022-10-23T15:02:17.755Z,55.98
2022-10-23T15:04:44.682Z,56.35
2022-10-23T15:07:11.651Z,56.48
2022-10-23T15:09:39.689Z,57.11
2022-10-23T15:12:07.763Z,57.20
2022-10-23T15:14:34.874Z,57.84
2022-10-23T15:17:01.674Z,58.03
2022-10-23T15:19:28.483Z,58.30
2022-10-23T15:21:55.268Z,58.98
2022-10-23T15:24:22.320Z,59.15
2022-10-23T15:26:50.178Z,59.29
2022-10-23T15:29:17.645Z,59.53
2022-10-23T15:31:53.195Z,59.45
2022-10-23T15:34:23.000Z,59.98
2022-10-23T15:36:50.599Z,60.30
2022-10-23T15:39:25.293Z,60.35
2022-10-23T15:41:55.195Z,60.33
2022-10-23T15:44:24.342Z,60.24
2022-10-23T15:46:52.131Z,60.89
2022-10-23T15:49:20.041Z,61.13
2022-10-23T15:51:46.847Z,61.26
2022-10-23T15:54:19.539Z,61.60
2022-10-23T15:56:49.395Z,61.64
2022-10-23T15:59:16.577Z,62.03
2022-10-23T16:01:43.502Z,62.25
2022-10-23T16:04:10.422Z,62.53
2022-10-23T16:06:37.156Z,62.69
2022-10-23T16:09:04.206Z,63.08
2022-10-23T16:11:35.294Z,63.26
2022-10-23T16:14:03.647Z,63.46
2022-10-23T16:16:32.113Z,64.04
2022-10-23T16:19:00.674Z,64.32
2022-10-23T16:21:30.261Z,64.65
2022-10-23T16:23:59.352Z,65.01
2022-10-23T16:26:26.785Z,64.85
2022-10-23T16:28:55.786Z,65.54
2022-10-23T16:31:23.664Z,65.58
2022-10-23T16:33:51.380Z,65.77
2022-10-23T16:36:19.638Z,66.27
2022-10-23T16:38:46.453Z,66.17
2022-10-23T16:41:13.403Z,66.57
2022-10-23T16:43:40.146Z,66.62
2022-10-23T16:46:14.642Z,67.09
2022-10-23T16:48:41.811Z,67.35
2022-10-23T16:51:11.335Z,67.31
2022-10-23T16:53:39.191Z,68.00
2022-10-23T16:56:08.358Z,68.07
2022-10-23T16:58:35.183Z,68.07
2022-10-23T17:01:16.062Z,68.48
2022-10-23T17:03:45.001Z,68.91
2022-10-23T17:06:14.126Z,69.07
2022-10-23T17:08:41.557Z,69.50
2022-10-23T17:11:13.203Z,69.75
2022-10-23T17:13:43.239Z,70.16
2022-10-23T17:16:12.634Z,70.19
2022-10-23T17:18:43.676Z,70.55
2022-10-23T17:21:12.540Z,71.12
2022-10-23T17:23:39.170Z,71.12
2022-10-23T17:26:11.218Z,71.55
2022-10-23T17:28:40.829Z,71.67
2022-10-23T17:31:34.797Z,71.63
2022-10-23T17:34:04.483Z,72.00
2022-10-23T17:36:33.431Z,72.35
2022-10-23T17:39:00.017Z,72.26
2022-10-23T17:41:26.987Z,72.64
2022-10-23T17:43:58.002Z,72.72
2022-10-23T17:46:24.949Z,72.91
2022-10-23T17:48:51.947Z,72.95
2022-10-23T17:51:22.278Z,72.99
2022-10-23T17:53:52.407Z,73.21
2022-10-23T17:56:26.247Z,73.48
2022-10-23T17:58:55.302Z,73.63
2022-10-23T18:01:25.250Z,73.90
2022-10-23T18:03:53.402Z,74.04
2022-10-23T18:06:27.302Z,74.21
2022-10-23T18:08:56.549Z,74.59
2022-10-23T18:11:29.894Z,74.84
2022-10-23T18:16:30.390Z,75.14
2022-10-23T18:20:01.729Z,75.27
2022-10-23T18:22:30.464Z,75.12
2022-10-23T18:29:38.530Z,75.32
2022-10-23T18:32:05.480Z,75.59
2022-10-23T18:34:32.158Z,75.67
2022-10-23T18:37:00.862Z,75.69
2022-10-23T18:39:28.653Z,75.72
2022-10-23T18:41:57.685Z,75.89
2022-10-23T18:44:27.721Z,75.76
2022-10-23T18:46:57.106Z,75.95
2022-10-23T18:49:24.245Z,76.33
2022-10-23T18:51:51.262Z,76.26
2022-10-23T18:54:20.067Z,76.36
2022-10-23T18:56:46.930Z,76.53
2022-10-23T18:59:16.644Z,76.86
2022-10-23T19:01:44.026Z,76.92
2022-10-23T19:04:15.795Z,77.11
2022-10-23T19:06:43.310Z,77.43
2022-10-23T19:09:13.762Z,77.18
2022-10-23T19:11:41.772Z,77.54
2022-10-23T19:14:09.606Z,77.43
2022-10-23T19:16:57.337Z,77.68
2022-10-23T19:19:28.820Z,77.43
2022-10-23T19:21:55.920Z,77.54
2022-10-23T19:24:29.755Z,77.76
2022-10-23T19:26:57.715Z,77.76
2022-10-23T19:29:26.731Z,77.72
2022-10-23T19:31:54.201Z,78.04
2022-10-23T19:34:24.821Z,78.03
2022-10-23T19:36:54.703Z,77.90
2022-10-23T19:39:21.591Z,77.99
2022-10-23T19:41:51.717Z,78.28
2022-10-23T19:44:19.789Z,78.52
2022-10-23T19:46:47.557Z,78.64
2022-10-23T19:49:14.647Z,78.89
2022-10-23T19:51:50.437Z,78.93
2022-10-23T19:55:17.779Z,79.56
2022-10-23T20:02:36.959Z,79.79
2022-10-23T20:06:06.594Z,80.34
2022-10-23T20:08:35.110Z,80.58
2022-10-23T20:15:43.660Z,80.88
2022-10-23T20:19:10.425Z,81.02
2022-10-23T20:22:39.523Z,80.79
2022-10-23T20:26:08.375Z,81.14
2022-10-23T20:33:27.494Z,80.93
2022-10-23T20:37:05.751Z,80.85
2022-10-23T20:43:24.990Z,80.75
2022-10-23T20:46:19.845Z,80.59
2022-10-23T20:48:46.668Z,80.58
2022-10-23T20:51:16.656Z,80.70
2022-10-23T20:53:44.752Z,80.64
2022-10-23T20:56:19.659Z,80.53
2022-10-23T20:58:46.841Z,80.58
2022-10-23T21:01:16.849Z,80.38
2022-10-23T21:03:45.242Z,80.46
2022-10-23T21:06:14.836Z,80.58
2022-10-23T21:08:42.132Z,80.44
2022-10-23T21:11:12.821Z,80.53
2022-10-23T21:13:39.603Z,80.35
2022-10-23T21:16:18.192Z,80.01
2022-10-23T21:18:46.713Z,79.95
2022-10-23T21:21:19.951Z,79.87
2022-10-23T21:23:49.575Z,79.98
2022-10-23T21:26:18.230Z,79.98
2022-10-23T21:28:55.682Z,79.94
2022-10-23T21:31:33.772Z,79.83
2022-10-23T21:34:00.789Z,80.02
2022-10-23T21:36:29.885Z,79.97
2022-10-23T21:38:58.886Z,79.74
2022-10-23T21:41:35.683Z,79.98
2022-10-23T21:44:05.076Z,79.67
2022-10-23T21:46:33.959Z,80.14
2022-10-23T21:49:01.677Z,80.18
2022-10-23T21:51:31.515Z,79.86
2022-10-23T21:53:59.109Z,79.91
2022-10-23T21:56:30.600Z,80.28
2022-10-23T21:59:01.355Z,79.94
2022-10-23T22:01:29.030Z,80.46
2022-10-23T22:03:56.854Z,80.24
2022-10-23T22:06:26.937Z,80.30
2022-10-23T22:08:55.203Z,80.52
2022-10-23T22:11:25.022Z,80.18
2022-10-23T22:13:51.914Z,80.30
2022-10-23T22:16:20.452Z,80.40
2022-10-23T22:18:47.697Z,80.35
2022-10-23T22:21:18.236Z,80.10
2022-10-23T22:23:45.018Z,80.27
2022-10-23T22:26:21.205Z,80.13
2022-10-23T22:28:48.178Z,80.27
2022-10-23T22:31:17.147Z,80.27
2022-10-23T22:33:44.190Z,80.21
2022-10-23T22:36:10.923Z,80.02
2022-10-23T22:38:40.637Z,79.89
2022-10-23T22:41:08.473Z,79.96
2022-10-23T22:43:35.474Z,80.26
2022-10-23T22:46:11.149Z,80.23
2022-10-23T22:48:38.663Z,79.88
2022-10-23T22:51:08.414Z,79.89
2022-10-23T22:53:36.202Z,80.30
2022-10-23T22:56:07.201Z,80.09
2022-10-23T22:58:33.913Z,80.18
2022-10-23T23:01:20.937Z,79.79
2022-10-23T23:03:47.843Z,79.94
2022-10-23T23:06:15.169Z,79.91
2022-10-23T23:08:42.888Z,79.94
2022-10-23T23:11:12.596Z,80.22
2022-10-23T23:13:39.872Z,80.32
2022-10-23T23:16:07.656Z,80.28
2022-10-23T23:18:34.921Z,80.32
2022-10-23T23:21:05.633Z,80.23
2022-10-23T23:23:32.714Z,80.15
2022-10-23T23:25:59.391Z,80.54
2022-10-23T23:28:26.137Z,80.11
2022-10-23T23:31:03.863Z,80.39
2022-10-23T23:33:30.924Z,80.56
2022-10-23T23:35:57.696Z,80.47
2022-10-23T23:38:24.540Z,80.42
2022-10-23T23:40:53.649Z,80.50
2022-10-23T23:43:20.612Z,80.33
2022-10-23T23:45:47.475Z,80.34
2022-10-23T23:48:14.126Z,80.51
2022-10-23T23:50:41.193Z,80.34
2022-10-23T23:53:08.116Z,80.78
2022-10-23T23:55:35.290Z,80.57
2022-10-23T23:58:02.075Z,80.42
